Terminal Aerodrome Forecast
Issued by NWS

Home | Current Version | Previous Version | Text Only | Print | Product List | Glossary On
Versions: 1 2 3 4 5 6 7 8 9 10 11 12 13 14 15 16 17 18 19 20 21
000
FTUS46 KEKA 212340
TAFCEC
TAF
KCEC 212340Z 2200/2224 17010KT P6SM OVC018
     FM220300 16004KT 5SM BR OVC007
     FM221000 16003KT 2SM BR OVC003
     FM221300 17004KT 4SM BR BKN003 OVC010
     FM221700 18007KT P6SM OVC012=

USA.gov is the U.S. government's official web portal to all federal, state and local government web resources and services.